createdAt,value
2022-10-05T00:02:05.484Z,7.87
2022-10-05T00:04:10.889Z,7.9
2022-10-05T00:06:16.567Z,7.86
2022-10-05T00:08:21.562Z,7.82
2022-10-05T00:10:26.639Z,7.84
2022-10-05T00:12:31.848Z,7.95
2022-10-05T00:14:37.582Z,7.98
2022-10-05T00:16:42.916Z,7.95
2022-10-05T00:18:49.943Z,7.89
2022-10-05T00:20:55.211Z,7.85
2022-10-05T00:23:00.237Z,7.82
2022-10-05T00:25:05.617Z,7.75
2022-10-05T00:27:11.064Z,7.76
2022-10-05T00:29:16.335Z,7.76
2022-10-05T00:31:21.383Z,7.73
2022-10-05T00:33:27.155Z,7.71
2022-10-05T00:35:32.300Z,7.69
2022-10-05T00:37:37.485Z,7.68
2022-10-05T00:39:42.592Z,7.63
2022-10-05T00:41:47.835Z,7.61
2022-10-05T00:43:55.904Z,7.62
2022-10-05T00:46:01.014Z,7.61
2022-10-05T00:48:07.016Z,7.56
2022-10-05T00:50:15.017Z,7.59
2022-10-05T00:52:20.121Z,7.54
2022-10-05T00:54:25.493Z,7.52
2022-10-05T00:56:30.753Z,7.46
2022-10-05T00:58:36.056Z,7.39
2022-10-05T01:00:41.491Z,7.3
2022-10-05T01:02:47.113Z,7.25
2022-10-05T01:04:52.699Z,7.2
2022-10-05T01:06:57.989Z,7.18
2022-10-05T01:09:02.954Z,7.16
2022-10-05T01:11:08.863Z,7.24
2022-10-05T01:13:14.240Z,7.3
2022-10-05T01:15:19.851Z,7.34
2022-10-05T01:17:25.068Z,7.43
2022-10-05T01:19:30.479Z,7.53
2022-10-05T01:21:35.809Z,7.57
2022-10-05T01:23:40.935Z,7.6
2022-10-05T01:25:46.622Z,7.65
2022-10-05T01:27:51.748Z,7.72
2022-10-05T01:29:57.197Z,7.8
2022-10-05T01:32:02.270Z,7.86
2022-10-05T01:34:11.270Z,7.91
2022-10-05T01:36:16.837Z,7.96
2022-10-05T01:38:22.578Z,7.99
2022-10-05T01:40:28.252Z,7.96
2022-10-05T01:42:33.654Z,7.93
2022-10-05T01:44:38.974Z,7.84
2022-10-05T01:46:44.432Z,7.84
2022-10-05T01:48:51.973Z,7.85
2022-10-05T01:50:57.106Z,7.86
2022-10-05T01:53:02.139Z,7.85
2022-10-05T01:55:07.436Z,7.86
2022-10-05T01:57:12.498Z,7.84
2022-10-05T01:59:17.497Z,7.86
2022-10-05T02:01:23.352Z,7.86
2022-10-05T02:03:29.100Z,7.92
2022-10-05T02:05:34.222Z,8
2022-10-05T02:07:39.349Z,8.04
2022-10-05T02:09:44.923Z,8.04
2022-10-05T02:11:50.349Z,8.03
2022-10-05T02:13:55.598Z,8.06
2022-10-05T02:16:00.755Z,8.05
2022-10-05T02:18:07.582Z,8.07
2022-10-05T02:20:12.807Z,8.08
2022-10-05T02:22:18.352Z,8.06
2022-10-05T02:24:23.649Z,7.98
2022-10-05T02:26:28.949Z,7.92
2022-10-05T02:28:34.306Z,7.91
2022-10-05T02:30:39.902Z,7.88
2022-10-05T02:32:45.201Z,7.85
2022-10-05T02:34:50.580Z,7.81
2022-10-05T02:36:56.441Z,7.74
2022-10-05T02:39:01.796Z,7.76
2022-10-05T02:41:06.919Z,7.63
2022-10-05T02:43:12.403Z,7.57
2022-10-05T02:45:17.252Z,7.59
2022-10-05T02:47:22.335Z,7.73
2022-10-05T02:49:27.701Z,7.76
2022-10-05T02:51:33.155Z,7.76
2022-10-05T02:53:37.967Z,7.82
2022-10-05T02:55:43.311Z,7.82
2022-10-05T02:57:48.406Z,7.78
2022-10-05T02:59:53.652Z,7.76
2022-10-05T03:01:58.687Z,7.74
2022-10-05T03:04:04.204Z,7.7
2022-10-05T03:06:10.107Z,7.73
2022-10-05T03:08:15.747Z,7.75
2022-10-05T03:10:21.107Z,7.75
2022-10-05T03:12:26.194Z,7.75
2022-10-05T03:14:31.475Z,7.75
2022-10-05T03:16:36.609Z,7.81
2022-10-05T03:18:41.755Z,7.81
2022-10-05T03:20:47.093Z,7.77
2022-10-05T03:22:52.281Z,7.81
2022-10-05T03:24:57.976Z,7.81
2022-10-05T03:27:03.211Z,7.77
2022-10-05T03:29:08.641Z,7.75
2022-10-05T03:31:14.553Z,7.69
2022-10-05T03:33:19.883Z,7.77
2022-10-05T03:35:25.402Z,7.8
2022-10-05T03:37:30.834Z,7.85
2022-10-05T03:39:36.106Z,7.86
2022-10-05T03:41:41.647Z,7.92
2022-10-05T03:43:46.964Z,7.95
2022-10-05T03:45:52.573Z,7.98
2022-10-05T03:48:01.415Z,8.04
2022-10-05T03:50:12.827Z,8.03
2022-10-05T03:52:30.088Z,8.08
2022-10-05T03:54:41.740Z,8.1
2022-10-05T03:56:47.233Z,8.04
2022-10-05T03:58:53.514Z,7.98
2022-10-05T04:00:58.811Z,7.95
2022-10-05T04:03:04.237Z,7.96
2022-10-05T04:05:09.652Z,7.94
2022-10-05T04:07:14.794Z,7.93
2022-10-05T04:09:21.328Z,7.94
2022-10-05T04:11:26.644Z,7.96
2022-10-05T04:13:31.839Z,7.95
2022-10-05T04:15:37.059Z,7.95
2022-10-05T04:17:42.867Z,7.94
2022-10-05T04:19:57.250Z,7.95
2022-10-05T04:22:02.534Z,8
2022-10-05T04:24:07.944Z,7.97
2022-10-05T04:26:13.489Z,7.96
2022-10-05T04:28:18.660Z,7.96
2022-10-05T04:30:24.195Z,7.98
2022-10-05T04:32:29.364Z,7.97
2022-10-05T04:34:34.638Z,8
2022-10-05T04:36:41.218Z,8.03
2022-10-05T04:38:47.522Z,8.06
2022-10-05T04:40:52.839Z,8.05
2022-10-05T04:42:58.193Z,8.04
2022-10-05T04:45:03.764Z,8
2022-10-05T04:47:10.999Z,8.03
2022-10-05T04:49:17.045Z,8.05
2022-10-05T04:51:23.082Z,8.02
2022-10-05T04:53:28.626Z,7.99
2022-10-05T04:55:34.266Z,7.99
2022-10-05T04:57:40.465Z,7.95
2022-10-05T04:59:46.341Z,7.93
2022-10-05T05:01:52.373Z,7.97
2022-10-05T05:03:58.513Z,7.95
2022-10-05T05:06:16.740Z,8
2022-10-05T05:08:23.696Z,8.01
2022-10-05T05:10:29.976Z,8
2022-10-05T05:12:36.672Z,7.98
2022-10-05T05:14:42.950Z,7.96
2022-10-05T05:16:50.245Z,8
2022-10-05T05:18:55.658Z,8.05
2022-10-05T05:21:01.857Z,8.06
2022-10-05T05:23:08.407Z,8.11
2022-10-05T05:25:14.524Z,8.09
2022-10-05T05:27:20.534Z,8.2
2022-10-05T05:29:26.103Z,8.21
2022-10-05T05:31:32.378Z,8.27
2022-10-05T05:33:39.131Z,8.32
2022-10-05T05:35:45.877Z,8.35
2022-10-05T05:37:52.082Z,8.4
2022-10-05T05:39:58.115Z,8.41
2022-10-05T05:42:03.974Z,8.46
2022-10-05T05:44:10.313Z,8.5
2022-10-05T05:46:16.586Z,8.55
2022-10-05T05:48:23.846Z,8.55
2022-10-05T05:50:31.760Z,8.63
2022-10-05T05:52:37.362Z,8.7
2022-10-05T05:54:42.857Z,8.7
2022-10-05T05:56:48.938Z,8.74
2022-10-05T05:58:55.583Z,8.75
2022-10-05T06:01:01.502Z,8.76
2022-10-05T06:03:07.460Z,8.78
2022-10-05T06:05:14.313Z,8.86
2022-10-05T06:07:20.415Z,8.9
2022-10-05T06:09:34.204Z,8.91
2022-10-05T06:11:40.519Z,8.99
2022-10-05T06:13:46.741Z,9.07
2022-10-05T06:15:53.028Z,9.18
2022-10-05T06:17:59.512Z,9.29
2022-10-05T06:20:05.820Z,9.25
2022-10-05T06:22:11.822Z,9.25
2022-10-05T06:24:17.723Z,9.31
2022-10-05T06:26:23.851Z,9.39
2022-10-05T06:28:34.814Z,9.44
2022-10-05T06:30:40.906Z,9.45
2022-10-05T06:32:46.436Z,9.55
2022-10-05T06:34:51.859Z,9.53
2022-10-05T06:36:57.793Z,9.63
2022-10-05T06:39:02.859Z,9.74
2022-10-05T06:41:08.736Z,9.79
2022-10-05T06:43:14.570Z,9.75
2022-10-05T06:45:20.666Z,9.85
2022-10-05T06:47:26.760Z,10.06
2022-10-05T06:49:32.979Z,10.02
2022-10-05T06:51:40.209Z,10.13
2022-10-05T06:53:46.301Z,10.17
2022-10-05T06:55:52.627Z,10.21
2022-10-05T06:57:59.188Z,10.33
2022-10-05T07:00:05.614Z,10.36
2022-10-05T07:02:14.577Z,10.49
2022-10-05T07:04:23.554Z,10.45
2022-10-05T07:06:29.914Z,10.57
2022-10-05T07:08:36.083Z,10.68
2022-10-05T07:10:42.222Z,10.73
2022-10-05T07:12:48.431Z,10.85
2022-10-05T07:14:54.578Z,10.83
2022-10-05T07:17:00.912Z,10.9
2022-10-05T07:19:12.915Z,10.83
2022-10-05T07:21:19.163Z,10.82
2022-10-05T07:23:25.409Z,10.88
2022-10-05T07:25:32.620Z,10.94
2022-10-05T07:27:38.798Z,11.06
2022-10-05T07:29:44.699Z,11.12
2022-10-05T07:31:50.702Z,11.28
2022-10-05T07:33:57.216Z,11.34
2022-10-05T07:36:06.551Z,11.49
2022-10-05T07:38:12.728Z,11.54
2022-10-05T07:40:22.366Z,11.52
2022-10-05T07:42:28.722Z,11.66
2022-10-05T07:44:36.095Z,11.68
2022-10-05T07:46:42.205Z,11.86
2022-10-05T07:48:49.848Z,12.03
2022-10-05T07:50:57.211Z,12.29
2022-10-05T07:53:03.325Z,12.24
2022-10-05T07:55:09.559Z,12.34
2022-10-05T07:57:15.599Z,12.56
2022-10-05T07:59:22.039Z,12.81
2022-10-05T08:01:28.277Z,12.48
2022-10-05T08:03:34.881Z,12.37
2022-10-05T08:05:41.507Z,12.63
2022-10-05T08:07:47.694Z,12.56
2022-10-05T08:09:55.390Z,12.71
2022-10-05T08:12:02.663Z,12.77
2022-10-05T08:14:09.705Z,12.83
2022-10-05T08:16:16.150Z,12.69
2022-10-05T08:18:22.682Z,12.7
2022-10-05T08:20:28.712Z,12.82
2022-10-05T08:22:34.995Z,13.03
2022-10-05T08:24:41.307Z,12.99
2022-10-05T08:26:47.297Z,12.84
2022-10-05T08:28:53.302Z,13.16
2022-10-05T08:30:59.712Z,13.16
2022-10-05T08:33:06.036Z,13.41
2022-10-05T08:35:12.468Z,13.66
2022-10-05T08:37:19.046Z,13.75
2022-10-05T08:39:25.218Z,13.87
2022-10-05T08:41:31.319Z,13.64
2022-10-05T08:43:37.713Z,13.8
2022-10-05T08:45:44.001Z,14.03
2022-10-05T08:47:50.315Z,14.19
2022-10-05T08:49:56.474Z,14.08
2022-10-05T08:52:02.882Z,13.93
2022-10-05T08:54:08.987Z,13.87
2022-10-05T08:56:19.819Z,13.97
2022-10-05T08:58:32.543Z,13.85
2022-10-05T09:00:38.694Z,13.69
2022-10-05T09:02:45.622Z,13.65
2022-10-05T09:04:51.622Z,13.69
2022-10-05T09:06:57.463Z,13.75
2022-10-05T09:09:03.209Z,13.76
2022-10-05T09:11:09.571Z,13.89
2022-10-05T09:13:15.443Z,13.94
2022-10-05T09:15:25.664Z,13.95
2022-10-05T09:17:35.890Z,13.99
2022-10-05T09:19:44.299Z,13.98
2022-10-05T09:21:50.568Z,13.98
2022-10-05T09:23:56.434Z,14.26
2022-10-05T09:26:02.024Z,14.36
2022-10-05T09:28:08.273Z,14.51
2022-10-05T09:30:13.797Z,14.69
2022-10-05T09:32:19.992Z,14.53
2022-10-05T09:34:34.308Z,14.41
2022-10-05T09:36:40.047Z,14.16
2022-10-05T09:38:46.382Z,14.12
2022-10-05T09:40:52.834Z,14.21
2022-10-05T09:42:58.704Z,14.29
2022-10-05T09:45:04.754Z,14.4
2022-10-05T09:47:11.417Z,14.51
2022-10-05T09:49:17.446Z,14.8
2022-10-05T09:51:23.047Z,14.7
2022-10-05T09:53:28.983Z,14.8
2022-10-05T09:55:35.957Z,14.76
2022-10-05T09:57:42.201Z,14.75
2022-10-05T09:59:52.815Z,14.73
2022-10-05T10:01:59.058Z,14.67
2022-10-05T10:04:05.320Z,14.74
2022-10-05T10:06:11.463Z,14.64
2022-10-05T10:08:20.950Z,14.99
2022-10-05T10:10:27.122Z,14.8
2022-10-05T10:12:33.211Z,15.12
2022-10-05T10:14:39.043Z,15.28
2022-10-05T10:16:45.359Z,15.35
2022-10-05T10:18:51.302Z,15.49
2022-10-05T10:20:57.694Z,15.62
2022-10-05T10:23:03.928Z,15.67
2022-10-05T10:25:09.998Z,15.79
2022-10-05T10:27:17.335Z,15.66
2022-10-05T10:29:23.015Z,15.65
2022-10-05T10:31:28.483Z,15.79
2022-10-05T10:33:33.951Z,15.55
2022-10-05T10:35:39.550Z,15.78
2022-10-05T10:37:45.876Z,16.34
2022-10-05T10:39:51.497Z,17.16
2022-10-05T10:41:58.798Z,18.25
2022-10-05T10:44:04.459Z,19.8
2022-10-05T10:46:10.286Z,19.91
2022-10-05T10:48:16.211Z,19.21
2022-10-05T10:50:22.027Z,19.83
2022-10-05T10:52:27.457Z,19.27
2022-10-05T10:54:32.736Z,19.05
2022-10-05T10:56:38.255Z,18.73
2022-10-05T10:58:43.656Z,18.76
2022-10-05T11:00:49.183Z,18.96
2022-10-05T11:02:54.462Z,19.69
2022-10-05T11:05:00.066Z,19.8
2022-10-05T11:07:05.500Z,19.99
2022-10-05T11:09:14.035Z,20.52
2022-10-05T11:11:25.857Z,21.29
2022-10-05T11:13:31.873Z,22.17
2022-10-05T11:15:38.143Z,20.65
2022-10-05T11:17:44.916Z,20.21
2022-10-05T11:20:06.730Z,18.83
2022-10-05T11:22:13.365Z,18.15
2022-10-05T11:24:19.209Z,17.94
2022-10-05T11:26:24.755Z,17.97
2022-10-05T11:28:30.307Z,18.23
2022-10-05T11:30:36.977Z,18.47
2022-10-05T11:32:43.313Z,18.77
2022-10-05T11:34:49.347Z,19.45
2022-10-05T11:36:55.928Z,19.38
2022-10-05T11:39:01.559Z,18.9
2022-10-05T11:41:07.568Z,18.73
2022-10-05T11:43:13.964Z,18.97
2022-10-05T11:45:20.161Z,18.96
2022-10-05T11:47:26.962Z,18.85
2022-10-05T11:49:33.056Z,19.1
2022-10-05T11:51:39.375Z,19
2022-10-05T11:53:45.769Z,18.97
2022-10-05T11:55:53.994Z,18.66
2022-10-05T11:57:59.808Z,18.4
2022-10-05T12:00:05.881Z,18.02
2022-10-05T12:02:12.512Z,17.69
2022-10-05T12:04:18.818Z,17.56
2022-10-05T12:06:25.130Z,17.81
2022-10-05T12:08:31.518Z,17.59
2022-10-05T12:10:37.578Z,17.47
2022-10-05T12:12:44.289Z,17.32
2022-10-05T12:14:51.482Z,17.3
2022-10-05T12:16:57.748Z,17.48
2022-10-05T12:19:04.123Z,17.55
2022-10-05T12:21:10.407Z,17.35
2022-10-05T12:23:17.267Z,17.26
2022-10-05T12:25:24.003Z,17.28
2022-10-05T12:27:30.845Z,17.4
2022-10-05T12:29:37.361Z,17.47
2022-10-05T12:31:43.302Z,17.4
2022-10-05T12:33:49.635Z,17.32
2022-10-05T12:35:55.769Z,17.27
2022-10-05T12:38:02.086Z,17.28
2022-10-05T12:40:10.722Z,17.09
2022-10-05T12:42:17.090Z,17.04
2022-10-05T12:44:23.158Z,17.28
2022-10-05T12:46:29.556Z,17.48
2022-10-05T12:48:35.898Z,17.25
2022-10-05T12:50:42.487Z,17.26
2022-10-05T12:52:48.720Z,17.11
2022-10-05T12:54:56.154Z,16.93
2022-10-05T12:57:02.582Z,17.19
2022-10-05T12:59:09.048Z,17.36
2022-10-05T13:01:15.277Z,17.38
2022-10-05T13:03:22.062Z,17.49
2022-10-05T13:05:29.259Z,17.41
2022-10-05T13:07:35.715Z,17.37
2022-10-05T13:09:42.069Z,17.27
2022-10-05T13:11:48.797Z,17.34
2022-10-05T13:13:55.132Z,17.4
2022-10-05T13:16:01.176Z,17.48
2022-10-05T13:18:07.812Z,17.49
2022-10-05T13:20:15.882Z,17.3
2022-10-05T13:22:22.217Z,17.26
2022-10-05T13:24:28.708Z,17.3
2022-10-05T13:26:35.513Z,17.48
2022-10-05T13:28:41.909Z,17.45
2022-10-05T13:30:48.218Z,17.46
2022-10-05T13:32:54.220Z,17.42
2022-10-05T13:35:04.933Z,17.36
2022-10-05T13:37:16.617Z,17.32
2022-10-05T13:39:22.909Z,17.22
2022-10-05T13:41:29.439Z,17.13
2022-10-05T13:43:35.500Z,17.16
2022-10-05T13:45:43.766Z,17.12
2022-10-05T13:47:54.803Z,17.14
2022-10-05T13:50:01.853Z,17.19
2022-10-05T13:52:09.452Z,17.14
2022-10-05T13:54:15.748Z,17.15
2022-10-05T13:56:25.583Z,17.18
2022-10-05T13:58:31.714Z,17.19
2022-10-05T14:00:38.190Z,17.19
2022-10-05T14:02:44.870Z,17.3
2022-10-05T14:04:51.445Z,17.24
2022-10-05T14:06:57.824Z,17.12
2022-10-05T14:09:04.611Z,16.99
2022-10-05T14:11:11.174Z,16.94
2022-10-05T14:13:19.278Z,16.91
2022-10-05T14:15:26.650Z,16.81
2022-10-05T14:17:33.297Z,16.88
2022-10-05T14:19:39.878Z,16.86
2022-10-05T14:21:46.212Z,16.91
2022-10-05T14:23:52.546Z,16.87
2022-10-05T14:25:59.577Z,16.89
2022-10-05T14:28:09.206Z,16.8
2022-10-05T14:30:16.488Z,16.79
2022-10-05T14:32:23.108Z,16.71
2022-10-05T14:34:29.499Z,16.61
2022-10-05T14:36:35.710Z,16.52
2022-10-05T14:38:41.866Z,16.59
2022-10-05T14:40:48.560Z,16.53
2022-10-05T14:42:54.917Z,16.55
2022-10-05T14:45:00.943Z,16.6
2022-10-05T14:47:07.223Z,16.42
2022-10-05T14:49:13.579Z,16.44
2022-10-05T14:51:19.957Z,16.32
2022-10-05T14:53:26.118Z,16.29
2022-10-05T14:55:32.121Z,16.3
2022-10-05T14:57:38.830Z,16.26
2022-10-05T14:59:44.935Z,16.23
2022-10-05T15:01:51.279Z,16.18
2022-10-05T15:03:57.728Z,16.2
2022-10-05T15:06:03.973Z,16.15
2022-10-05T15:08:10.108Z,16.07
2022-10-05T15:10:16.303Z,16.04
2022-10-05T15:12:23.044Z,15.95
2022-10-05T15:14:30.547Z,15.87
2022-10-05T15:16:36.863Z,15.79
2022-10-05T15:18:43.515Z,15.77
2022-10-05T15:20:49.627Z,15.75
2022-10-05T15:22:55.972Z,15.78
2022-10-05T15:25:02.574Z,15.65
2022-10-05T15:27:08.870Z,15.61
2022-10-05T15:29:15.203Z,15.62
2022-10-05T15:31:21.685Z,15.53
2022-10-05T15:33:28.276Z,15.38
2022-10-05T15:35:34.690Z,15.28
2022-10-05T15:37:40.977Z,15.28
2022-10-05T15:39:50.232Z,15.27
2022-10-05T15:41:56.919Z,15.18
2022-10-05T15:44:06.183Z,15.09
2022-10-05T15:46:12.859Z,15.05
2022-10-05T15:48:19.583Z,14.96
2022-10-05T15:50:27.616Z,15.01
2022-10-05T15:52:34.269Z,14.94
2022-10-05T15:54:40.623Z,14.91
2022-10-05T15:56:46.842Z,14.87
2022-10-05T15:58:53.339Z,14.89
2022-10-05T16:00:59.592Z,14.78
2022-10-05T16:03:06.378Z,14.71
2022-10-05T16:05:13.914Z,14.59
2022-10-05T16:07:20.151Z,14.52
2022-10-05T16:09:26.320Z,14.49
2022-10-05T16:11:36.044Z,14.54
2022-10-05T16:13:42.850Z,14.5
2022-10-05T16:15:49.181Z,14.43
2022-10-05T16:17:55.776Z,14.23
2022-10-05T16:20:02.206Z,14.1
2022-10-05T16:22:08.646Z,14.01
2022-10-05T16:24:14.932Z,13.99
2022-10-05T16:26:21.267Z,13.98
2022-10-05T16:28:27.742Z,14.09
2022-10-05T16:30:35.021Z,14.03
2022-10-05T16:32:41.564Z,13.93
2022-10-05T16:34:49.315Z,13.89
2022-10-05T16:36:55.913Z,13.82
2022-10-05T16:39:02.151Z,13.75
2022-10-05T16:41:08.214Z,13.72
2022-10-05T16:43:15.500Z,13.69
2022-10-05T16:45:21.731Z,13.67
2022-10-05T16:47:28.078Z,13.67
2022-10-05T16:49:37.629Z,13.67
2022-10-05T16:51:44.390Z,13.65
2022-10-05T16:53:50.786Z,13.68
2022-10-05T16:55:57.522Z,13.67
2022-10-05T16:58:04.011Z,13.62
2022-10-05T17:00:15.006Z,13.65
2022-10-05T17:02:23.560Z,13.74
2022-10-05T17:04:30.147Z,13.84
2022-10-05T17:06:36.715Z,14.07
2022-10-05T17:08:43.602Z,14.13
2022-10-05T17:10:50.569Z,14.16
2022-10-05T17:12:58.493Z,14.3
2022-10-05T17:15:04.792Z,14.35
2022-10-05T17:17:11.453Z,14.38
2022-10-05T17:19:18.079Z,14.41
2022-10-05T17:21:24.562Z,14.39
2022-10-05T17:23:31.281Z,14.37
2022-10-05T17:25:38.589Z,14.45
2022-10-05T17:27:48.762Z,14.5
2022-10-05T17:29:59.369Z,14.5
2022-10-05T17:32:07.356Z,14.48
2022-10-05T17:34:13.668Z,14.47
2022-10-05T17:36:20.723Z,14.47
2022-10-05T17:38:27.742Z,14.54
2022-10-05T17:40:35.503Z,14.54
2022-10-05T17:42:42.600Z,14.53
2022-10-05T17:44:49.806Z,14.41
2022-10-05T17:46:58.565Z,14.49
2022-10-05T17:49:05.016Z,14.46
2022-10-05T17:51:12.468Z,14.44
2022-10-05T17:53:19.337Z,14.44
2022-10-05T17:55:25.709Z,14.34
2022-10-05T17:57:32.483Z,14.29
2022-10-05T17:59:41.326Z,14.26
2022-10-05T18:01:48.930Z,14.24
2022-10-05T18:03:56.121Z,14.18
2022-10-05T18:06:02.114Z,14.19
2022-10-05T18:08:10.436Z,14.1
2022-10-05T18:10:19.745Z,14.06
2022-10-05T18:12:26.809Z,13.93
2022-10-05T18:14:33.297Z,13.9
2022-10-05T18:16:40.933Z,13.77
2022-10-05T18:18:47.456Z,13.68
2022-10-05T18:20:54.094Z,13.6
2022-10-05T18:23:00.963Z,13.5
2022-10-05T18:25:08.233Z,13.45
2022-10-05T18:27:16.920Z,13.39
2022-10-05T18:29:24.329Z,13.38
2022-10-05T18:31:31.696Z,13.35
2022-10-05T18:33:41.002Z,13.31
2022-10-05T18:35:49.813Z,13.24
2022-10-05T18:37:57.562Z,13.13
2022-10-05T18:40:06.578Z,12.99
2022-10-05T18:42:15.343Z,12.96
2022-10-05T18:44:23.591Z,12.9
2022-10-05T18:46:31.608Z,12.95
2022-10-05T18:48:40.483Z,12.92
2022-10-05T18:50:47.869Z,12.88
2022-10-05T18:52:55.220Z,13.02
2022-10-05T18:55:03.296Z,12.9
2022-10-05T18:57:11.323Z,12.85
2022-10-05T18:59:21.321Z,12.84
2022-10-05T19:01:32.639Z,13.05
2022-10-05T19:03:43.417Z,12.97
2022-10-05T19:05:51.072Z,12.89
2022-10-05T19:07:58.171Z,12.8
2022-10-05T19:10:05.876Z,12.68
2022-10-05T19:12:14.266Z,12.56
2022-10-05T19:14:21.605Z,12.5
2022-10-05T19:16:30.193Z,12.43
2022-10-05T19:18:38.103Z,12.39
2022-10-05T19:20:45.917Z,12.47
2022-10-05T19:22:54.477Z,12.49
2022-10-05T19:25:00.957Z,12.4
2022-10-05T19:27:08.113Z,12.36
2022-10-05T19:29:15.350Z,12.3
2022-10-05T19:31:21.733Z,12.3
2022-10-05T19:33:28.879Z,12.31
2022-10-05T19:35:38.685Z,12.41
2022-10-05T19:37:46.549Z,12.51
2022-10-05T19:40:03.431Z,12.58
2022-10-05T19:42:14.886Z,12.79
2022-10-05T19:44:21.454Z,12.98
2022-10-05T19:46:28.481Z,13.09
2022-10-05T19:48:35.912Z,13.11
2022-10-05T19:50:45.782Z,13.15
2022-10-05T19:52:51.876Z,13.27
2022-10-05T19:55:00.109Z,13.23
2022-10-05T19:57:07.998Z,13.13
2022-10-05T19:59:15.715Z,13.06
2022-10-05T20:01:21.780Z,13.04
2022-10-05T20:03:30.248Z,12.99
2022-10-05T20:05:37.158Z,12.99
2022-10-05T20:07:45.313Z,12.95
2022-10-05T20:09:52.981Z,12.87
2022-10-05T20:12:00.099Z,12.81
2022-10-05T20:14:06.738Z,12.97
2022-10-05T20:16:13.227Z,12.99
2022-10-05T20:18:21.343Z,13
2022-10-05T20:20:28.850Z,13.09
2022-10-05T20:22:34.958Z,13.13
2022-10-05T20:24:41.334Z,13
2022-10-05T20:26:47.398Z,13.07
2022-10-05T20:28:53.957Z,13.1
2022-10-05T20:31:01.432Z,13.08
2022-10-05T20:33:07.996Z,13.02
2022-10-05T20:35:16.306Z,12.96
2022-10-05T20:37:23.037Z,12.92
2022-10-05T20:39:29.311Z,12.79
2022-10-05T20:41:35.631Z,12.78
2022-10-05T20:43:42.028Z,12.77
2022-10-05T20:45:48.277Z,12.91
2022-10-05T20:47:54.348Z,12.97
2022-10-05T20:50:00.299Z,12.92
2022-10-05T20:52:06.115Z,12.78
2022-10-05T20:54:12.502Z,12.71
2022-10-05T20:56:19.547Z,12.7
2022-10-05T20:58:26.282Z,12.65
2022-10-05T21:00:34.471Z,12.58
2022-10-05T21:02:40.890Z,12.54
2022-10-05T21:04:47.315Z,12.49
2022-10-05T21:06:53.969Z,12.5
2022-10-05T21:08:59.462Z,12.44
2022-10-05T21:11:05.216Z,12.49
2022-10-05T21:13:11.645Z,12.52
2022-10-05T21:15:17.536Z,12.57
2022-10-05T21:17:23.398Z,12.52
2022-10-05T21:19:29.024Z,12.5
2022-10-05T21:21:34.604Z,12.47
2022-10-05T21:23:39.786Z,12.44
2022-10-05T21:25:45.574Z,12.37
2022-10-05T21:27:50.901Z,12.18
2022-10-05T21:29:56.684Z,12.13
2022-10-05T21:32:02.676Z,12.16
2022-10-05T21:34:09.442Z,12.28
2022-10-05T21:36:15.046Z,12.3
2022-10-05T21:38:27.519Z,12.24
2022-10-05T21:40:34.636Z,12.26
2022-10-05T21:42:40.359Z,12.28
2022-10-05T21:44:45.943Z,12.22
2022-10-05T21:46:51.924Z,12.2
2022-10-05T21:48:57.394Z,12.29
2022-10-05T21:51:02.930Z,12.28
2022-10-05T21:53:08.526Z,12.22
2022-10-05T21:55:14.328Z,12.16
2022-10-05T21:57:19.734Z,12.11
2022-10-05T21:59:25.453Z,12.15
2022-10-05T22:01:31.001Z,12.16
2022-10-05T22:03:36.835Z,12.12
2022-10-05T22:05:43.160Z,12.1
2022-10-05T22:07:48.860Z,12.07
2022-10-05T22:09:54.408Z,12.1
2022-10-05T22:11:59.738Z,12.13
2022-10-05T22:14:04.935Z,12.06
2022-10-05T22:16:10.313Z,12
2022-10-05T22:18:16.239Z,11.88
2022-10-05T22:20:21.684Z,11.84
2022-10-05T22:22:27.299Z,11.68
2022-10-05T22:24:32.776Z,11.56
2022-10-05T22:26:38.292Z,11.5
2022-10-05T22:28:43.913Z,11.39
2022-10-05T22:30:50.119Z,11.34
2022-10-05T22:32:55.420Z,11.34
2022-10-05T22:35:00.613Z,11.24
2022-10-05T22:37:13.375Z,11.24
2022-10-05T22:39:18.835Z,11.29
2022-10-05T22:41:24.594Z,11.22
2022-10-05T22:43:29.797Z,11.14
2022-10-05T22:45:35.351Z,11.13
2022-10-05T22:47:40.849Z,11.08
2022-10-05T22:49:46.669Z,11.02
2022-10-05T22:51:52.360Z,10.89
2022-10-05T22:53:57.739Z,10.79
2022-10-05T22:56:03.436Z,10.75
2022-10-05T22:58:09.202Z,10.72
2022-10-05T23:00:14.621Z,10.71
2022-10-05T23:02:20.056Z,10.72
2022-10-05T23:04:25.916Z,10.71
2022-10-05T23:06:31.898Z,10.74
2022-10-05T23:08:37.387Z,10.79
2022-10-05T23:10:42.672Z,10.83
2022-10-05T23:12:47.932Z,10.84
2022-10-05T23:14:53.216Z,10.82
2022-10-05T23:16:58.443Z,10.89
2022-10-05T23:19:03.970Z,10.88
2022-10-05T23:21:09.080Z,10.85
2022-10-05T23:23:14.413Z,10.85
2022-10-05T23:25:19.795Z,10.94
2022-10-05T23:27:25.459Z,10.85
2022-10-05T23:29:30.823Z,10.85
2022-10-05T23:31:36.382Z,10.83
2022-10-05T23:33:41.830Z,10.78
2022-10-05T23:35:47.102Z,10.7
2022-10-05T23:37:52.499Z,10.64
2022-10-05T23:39:57.773Z,10.67
2022-10-05T23:42:03.107Z,10.68
2022-10-05T23:44:08.374Z,10.72
2022-10-05T23:46:13.995Z,10.72
2022-10-05T23:48:19.856Z,10.72
2022-10-05T23:50:25.554Z,10.73
2022-10-05T23:52:31.027Z,10.71
2022-10-05T23:54:36.282Z,10.75
2022-10-05T23:56:41.688Z,10.71
2022-10-05T23:58:47.117Z,10.64
